Main page
METAR-TAF:

METAR-TAF

Airports :

Salak Airport

Maroua, Cameroon

latitude: 10-27N, longitude: 014-15E, elevation: 423 m

Current weather observation

The report was made 18 hours and 0 minutes ago, at 09:00 UTC
Temperature 31°C
Humidity 59%
Pressure 1015 hPa
Visibility 10 km or more
no clouds below 1500 m and no cumulonimbus

METAR: FKKL 020900Z /////KT CAVOK 31/22 Q1015

Time: 04:00 (03:00 UTC)

Forecast

The report was made 6 hours and 30 minutes ago, at 20:30 UTC
Forecast valid from 02 at 21 UTC to 03 at 06 UTC
Wind 4 kt from variable directions
Visibility 10 km or more
no clouds below 1500 m and no cumulonimbus

TAF: FKKL 022030Z 0221/0306 VRB04KT CAVOK

Weather observations and forecasts of more than 4000 airports (METAR and TAF reports).

The available stations are represented by yellow and red dots on the map.

Hover mouse over dot to see the name of the station.

Then click to see weather observations and forecasts.

To change the map : click on the green buttons with a black cross to zoom in, on the green button with a dash to zoom out, or on the green arrows for adjacent maps.


METAR-TAF: